createdAt,value
2023-04-02T00:00:00.133Z,2.5
2023-04-02T00:05:00.091Z,2.5
2023-04-02T00:10:00.101Z,3.2
2023-04-02T00:15:00.142Z,3.8
2023-04-02T00:20:00.114Z,2.5
2023-04-02T00:25:00.099Z,2.7
2023-04-02T00:30:00.118Z,3.4
2023-04-02T00:35:00.137Z,3.4
2023-04-02T00:40:00.168Z,2.6
2023-04-02T00:45:00.114Z,3.9
2023-04-02T00:50:00.132Z,3.6
2023-04-02T00:55:00.115Z,4.6
2023-04-02T01:00:00.170Z,2.7
2023-04-02T01:05:00.153Z,2.7
2023-04-02T01:10:00.122Z,3.1
2023-04-02T01:15:00.106Z,2.8
2023-04-02T01:20:00.108Z,6
2023-04-02T01:25:00.106Z,3.3
2023-04-02T01:30:00.100Z,4.3
2023-04-02T01:35:00.122Z,4.3
2023-04-02T01:40:00.108Z,3.4
2023-04-02T01:45:00.118Z,4.6
2023-04-02T01:50:00.153Z,3.4
2023-04-02T01:55:00.106Z,4.1
2023-04-02T02:00:00.129Z,4.7
2023-04-02T02:05:00.095Z,4.7
2023-04-02T02:10:00.136Z,5.7
2023-04-02T02:15:00.123Z,5.7
2023-04-02T02:20:00.147Z,6.9
2023-04-02T02:25:00.115Z,6.5
2023-04-02T02:30:00.132Z,6.2
2023-04-02T02:35:00.115Z,6.2
2023-04-02T02:40:00.113Z,6.2
2023-04-02T02:45:00.123Z,6.6
2023-04-02T02:50:00.105Z,9.4
2023-04-02T02:55:00.203Z,9.7
2023-04-02T03:00:00.143Z,6.1
2023-04-02T03:05:00.103Z,6.1
2023-04-02T03:10:00.130Z,7.9
2023-04-02T03:15:00.112Z,9.2
2023-04-02T03:20:00.175Z,6.8
2023-04-02T03:25:00.105Z,8.6
2023-04-02T03:30:00.112Z,9.1
2023-04-02T03:35:00.112Z,9.1
2023-04-02T03:40:00.177Z,8.2
2023-04-02T03:45:00.142Z,8.4
2023-04-02T03:50:00.138Z,9
2023-04-02T03:55:00.141Z,7.9
2023-04-02T04:00:00.134Z,8
2023-04-02T04:05:00.117Z,8
2023-04-02T04:10:00.133Z,6.7
2023-04-02T04:15:00.127Z,9
2023-04-02T04:20:00.143Z,8.1
2023-04-02T04:25:00.154Z,7.4
2023-04-02T04:30:00.107Z,7.4
2023-04-02T04:35:00.111Z,7.4
2023-04-02T04:40:00.154Z,7.9
2023-04-02T04:45:00.112Z,9
2023-04-02T04:50:00.109Z,6.6
2023-04-02T04:55:00.124Z,8.2
2023-04-02T05:00:00.127Z,6.6
2023-04-02T05:05:00.175Z,6.6
2023-04-02T05:10:00.120Z,6.5
2023-04-02T05:15:00.103Z,7.9
2023-04-02T05:20:00.116Z,7.3
2023-04-02T05:25:00.122Z,5.9
2023-04-02T05:30:00.123Z,6.1
2023-04-02T05:35:00.132Z,6.1
2023-04-02T05:40:00.149Z,10
2023-04-02T05:45:00.145Z,16.2
2023-04-02T05:50:00.116Z,2.6
2023-04-02T05:55:00.128Z,0.5
2023-04-02T06:00:00.129Z,1.3
2023-04-02T06:05:00.127Z,1.3
2023-04-02T06:10:00.141Z,1
2023-04-02T06:15:00.130Z,1.3
2023-04-02T06:20:00.154Z,0.7
2023-04-02T06:25:00.114Z,0.6
2023-04-02T06:30:00.156Z,0.9
2023-04-02T06:35:00.121Z,0.9
2023-04-02T06:40:00.137Z,0.9
2023-04-02T06:45:00.607Z,1.2
2023-04-02T06:50:00.136Z,0.7
2023-04-02T06:55:00.180Z,0.6
2023-04-02T07:00:00.128Z,1.1
2023-04-02T07:05:00.189Z,1.1
2023-04-02T07:10:00.117Z,1
2023-04-02T07:15:00.104Z,0.5
2023-04-02T07:20:00.087Z,0.8
2023-04-02T07:25:00.103Z,1.7
2023-04-02T07:30:00.105Z,2.2
2023-04-02T07:35:00.105Z,2.2
2023-04-02T07:40:00.123Z,1
2023-04-02T07:45:00.105Z,0.5
2023-04-02T07:50:00.119Z,0.5
2023-04-02T07:55:00.090Z,0.5
2023-04-02T08:00:00.116Z,0.7
2023-04-02T08:05:00.110Z,0.7
2023-04-02T08:10:00.125Z,0.7
2023-04-02T08:15:00.103Z,0.8
2023-04-02T08:20:00.139Z,0.7
2023-04-02T08:25:00.126Z,0.6
2023-04-02T08:30:00.109Z,0.8
2023-04-02T08:35:00.115Z,0.8
2023-04-02T08:40:00.144Z,6.7
2023-04-02T08:45:02.373Z,0.8
2023-04-02T08:50:00.121Z,1
2023-04-02T08:55:00.135Z,1.2
2023-04-02T09:00:00.115Z,0.5
2023-04-02T09:05:00.158Z,0.5
2023-04-02T09:10:00.113Z,0.8
2023-04-02T09:15:00.137Z,0.8
2023-04-02T09:20:00.114Z,1
2023-04-02T09:25:00.100Z,0.6
2023-04-02T09:30:00.161Z,0.8
2023-04-02T09:35:00.123Z,0.8
2023-04-02T09:40:00.147Z,1
2023-04-02T09:45:00.136Z,0.8
2023-04-02T09:50:00.131Z,1.7
2023-04-02T09:55:00.123Z,1.5
2023-04-02T10:00:00.124Z,1.1
2023-04-02T10:05:00.128Z,1.1
2023-04-02T10:10:00.113Z,1.1
2023-04-02T10:15:00.119Z,1.5
2023-04-02T10:20:00.162Z,1.3
2023-04-02T10:25:00.102Z,1.2
2023-04-02T10:30:00.132Z,1.2
2023-04-02T10:35:00.130Z,1.2
2023-04-02T10:40:00.113Z,1.6
2023-04-02T10:45:00.105Z,1.6
2023-04-02T10:50:00.130Z,2.1
2023-04-02T10:55:00.103Z,1.8
2023-04-02T11:00:00.136Z,1.5
2023-04-02T11:05:01.747Z,1.5
2023-04-02T11:10:00.166Z,1.6
2023-04-02T11:15:00.128Z,1.3
2023-04-02T11:20:00.093Z,2.2
2023-04-02T11:25:00.149Z,1.7
2023-04-02T11:30:00.141Z,2
2023-04-02T11:35:06.306Z,2
2023-04-02T11:40:00.173Z,2.9
2023-04-02T11:45:00.135Z,1.8
2023-04-02T11:50:00.146Z,2.5
2023-04-02T11:55:00.170Z,2.5
2023-04-02T12:00:00.112Z,2.3
2023-04-02T12:05:00.137Z,2.3
2023-04-02T12:10:00.115Z,2
2023-04-02T12:15:00.116Z,2.6
2023-04-02T12:20:00.153Z,2.5
2023-04-02T12:25:00.129Z,3.7
2023-04-02T12:30:00.129Z,3.2
2023-04-02T12:35:00.151Z,3.2
2023-04-02T12:40:00.149Z,3
2023-04-02T12:45:00.121Z,3.2
2023-04-02T12:50:00.123Z,3.1
2023-04-02T12:55:00.176Z,3.4
2023-04-02T13:00:00.194Z,3
2023-04-02T13:05:00.092Z,3
2023-04-02T13:10:00.131Z,3
2023-04-02T13:15:00.114Z,3.3
2023-04-02T13:20:00.118Z,3
2023-04-02T13:25:00.116Z,2.6
2023-04-02T13:30:00.119Z,2.8
2023-04-02T13:35:00.118Z,2.8
2023-04-02T13:40:00.159Z,3.6
2023-04-02T13:45:00.159Z,4.2
2023-04-02T13:50:00.144Z,5
2023-04-02T13:55:00.150Z,4.6
2023-04-02T14:00:00.131Z,6
2023-04-02T14:05:00.115Z,6
2023-04-02T14:10:00.138Z,6.3
2023-04-02T14:15:00.121Z,5.7
2023-04-02T14:20:00.143Z,5.2
2023-04-02T14:25:00.101Z,6.9
2023-04-02T14:30:00.133Z,6.1
2023-04-02T14:35:00.116Z,6.1
2023-04-02T14:40:00.260Z,5.2
2023-04-02T14:45:00.147Z,3.8
2023-04-02T14:50:00.126Z,4.8
2023-04-02T14:55:00.114Z,6.4
2023-04-02T15:00:00.107Z,4.3
2023-04-02T15:05:01.327Z,4.3
2023-04-02T15:10:00.147Z,5.5
2023-04-02T15:15:00.113Z,7.6
2023-04-02T15:20:00.129Z,5.3
2023-04-02T15:25:00.128Z,5.3
2023-04-02T15:30:00.134Z,5.8
2023-04-02T15:35:00.093Z,5.8
2023-04-02T15:40:00.138Z,5.7
2023-04-02T15:45:00.106Z,5.4
2023-04-02T15:50:00.113Z,5.6
2023-04-02T15:55:00.096Z,7.1
2023-04-02T16:00:00.104Z,5.9
2023-04-02T16:05:00.110Z,5.9
2023-04-02T16:10:00.129Z,5.8
2023-04-02T16:15:00.121Z,6.2
2023-04-02T16:20:00.143Z,4.4
2023-04-02T16:25:00.124Z,3.4
2023-04-02T16:30:00.140Z,3.8
2023-04-02T16:35:13.155Z,3.8
2023-04-02T16:40:00.153Z,5.1
2023-04-02T16:45:00.106Z,4
2023-04-02T16:50:00.109Z,3.6
2023-04-02T16:55:00.148Z,4.2
2023-04-02T17:00:00.159Z,4.1
2023-04-02T17:05:00.107Z,4.1
2023-04-02T17:10:00.116Z,3.5
2023-04-02T17:15:00.108Z,4.2
2023-04-02T17:20:00.153Z,4.3
2023-04-02T17:25:00.152Z,4.7
2023-04-02T17:30:00.155Z,6.5
2023-04-02T17:35:00.145Z,6.5
2023-04-02T17:40:00.132Z,7.3
2023-04-02T17:45:00.128Z,6.3
2023-04-02T17:50:00.145Z,5.7
2023-04-02T17:55:00.154Z,5.7
2023-04-02T18:00:00.164Z,3.6
2023-04-02T18:05:00.118Z,3.6
2023-04-02T18:10:00.146Z,4.4
2023-04-02T18:15:00.135Z,5
2023-04-02T18:20:00.111Z,5.4
2023-04-02T18:25:00.128Z,6.4
2023-04-02T18:30:00.123Z,5.5
2023-04-02T18:35:00.121Z,5.5
2023-04-02T18:40:00.147Z,4.6
2023-04-02T18:45:00.094Z,5.8
2023-04-02T18:50:00.101Z,4.9
2023-04-02T18:55:00.119Z,5
2023-04-02T19:00:00.136Z,3.9
2023-04-02T19:05:00.119Z,3.9
2023-04-02T19:10:00.148Z,5.1
2023-04-02T19:15:00.118Z,7.8
2023-04-02T19:20:00.128Z,6.6
2023-04-02T19:25:00.137Z,7.3
2023-04-02T19:30:00.134Z,4.5
2023-04-02T19:35:00.129Z,4.5
2023-04-02T19:40:00.177Z,5
2023-04-02T19:45:00.120Z,4.8
2023-04-02T19:50:00.140Z,5.8
2023-04-02T19:55:00.142Z,6.1
2023-04-02T20:00:00.126Z,5.2
2023-04-02T20:05:00.103Z,5.2
2023-04-02T20:10:00.116Z,7
2023-04-02T20:15:00.119Z,4.9
2023-04-02T20:20:00.135Z,6.9
2023-04-02T20:25:00.122Z,5.5
2023-04-02T20:30:00.118Z,4.7
2023-04-02T20:35:00.109Z,4.7
2023-04-02T20:40:00.177Z,6
2023-04-02T20:45:00.120Z,7.6
2023-04-02T20:50:00.136Z,7.3
2023-04-02T20:55:00.101Z,4.7
2023-04-02T21:00:00.105Z,5.7
2023-04-02T21:05:00.140Z,5.7
2023-04-02T21:10:00.136Z,4.7
2023-04-02T21:15:02.456Z,4.9
2023-04-02T21:20:00.121Z,7.4
2023-04-02T21:25:00.118Z,8.1
2023-04-02T21:30:00.125Z,3.9
2023-04-02T21:35:00.114Z,3.9
2023-04-02T21:40:00.156Z,6.8
2023-04-02T21:45:00.115Z,6.2
2023-04-02T21:50:00.083Z,6.9
2023-04-02T21:55:00.121Z,6.7
2023-04-02T22:00:00.097Z,4.4
2023-04-02T22:05:00.106Z,4.4
2023-04-02T22:10:00.107Z,10.1
2023-04-02T22:15:00.140Z,6.9
2023-04-02T22:20:00.121Z,7.7
2023-04-02T22:25:00.111Z,7.6
2023-04-02T22:30:00.105Z,5.6
2023-04-02T22:35:00.106Z,5.6
2023-04-02T22:40:00.180Z,8.8
2023-04-02T22:45:00.101Z,8
2023-04-02T22:50:00.124Z,7.2
2023-04-02T22:55:00.123Z,9.4
2023-04-02T23:00:00.143Z,5.8
2023-04-02T23:05:00.139Z,5.8
2023-04-02T23:10:00.136Z,7.1
2023-04-02T23:15:00.111Z,6.4
2023-04-02T23:20:00.084Z,6.4
2023-04-02T23:25:00.122Z,6.9
2023-04-02T23:30:00.116Z,7.9
2023-04-02T23:35:00.126Z,7.9
2023-04-02T23:40:00.133Z,5.7
2023-04-02T23:45:00.138Z,8.1
2023-04-02T23:50:00.127Z,11.5
2023-04-02T23:55:00.113Z,8
